sensor_id;sensor_type;location;lat;lon;timestamp;P1;P2;P0
80692;PMS5003;70055;39.436;-77.514;2023-07-20T00:00:28;20;20;
80692;PMS5003;70055;39.436;-77.514;2023-07-20T00:03:09;22;21;
80692;PMS5003;70055;39.436;-77.514;2023-07-20T00:05:38;34;28;
80692;PMS5003;70055;39.436;-77.514;2023-07-20T00:08:07;19;19;
80692;PMS5003;70055;39.436;-77.514;2023-07-20T00:10:34;20;20;
80692;PMS5003;70055;39.436;-77.514;2023-07-20T00:13:02;21;20;
80692;PMS5003;70055;39.436;-77.514;2023-07-20T00:15:30;21;20;
80692;PMS5003;70055;39.436;-77.514;2023-07-20T00:17:58;19;19;
80692;PMS5003;70055;39.436;-77.514;2023-07-20T00:20:26;20;20;
80692;PMS5003;70055;39.436;-77.514;2023-07-20T00:22:54;29;27;
80692;PMS5003;70055;39.436;-77.514;2023-07-20T00:25:23;24;23;
80692;PMS5003;70055;39.436;-77.514;2023-07-20T00:27:51;17;17;
80692;PMS5003;70055;39.436;-77.514;2023-07-20T00:30:20;16;16;
80692;PMS5003;70055;39.436;-77.514;2023-07-20T00:32:48;22;22;
80692;PMS5003;70055;39.436;-77.514;2023-07-20T00:35:16;19;19;
80692;PMS5003;70055;39.436;-77.514;2023-07-20T00:37:45;22;21;
80692;PMS5003;70055;39.436;-77.514;2023-07-20T00:40:14;20;20;
80692;PMS5003;70055;39.436;-77.514;2023-07-20T00:42:41;21;21;
80692;PMS5003;70055;39.436;-77.514;2023-07-20T00:45:10;20;18;
80692;PMS5003;70055;39.436;-77.514;2023-07-20T00:47:38;19;19;
80692;PMS5003;70055;39.436;-77.514;2023-07-20T00:50:07;20;19;
80692;PMS5003;70055;39.436;-77.514;2023-07-20T00:52:36;19;19;
80692;PMS5003;70055;39.436;-77.514;2023-07-20T00:55:07;22;21;
80692;PMS5003;70055;39.436;-77.514;2023-07-20T00:57:36;22;21;
80692;PMS5003;70055;39.436;-77.514;2023-07-20T01:00:06;25;24;
80692;PMS5003;70055;39.436;-77.514;2023-07-20T01:02:35;22;21;
80692;PMS5003;70055;39.436;-77.514;2023-07-20T01:05:04;24;23;
80692;PMS5003;70055;39.436;-77.514;2023-07-20T01:07:35;22;20;
80692;PMS5003;70055;39.436;-77.514;2023-07-20T01:10:09;18;18;
80692;PMS5003;70055;39.436;-77.514;2023-07-20T01:12:42;22;22;
80692;PMS5003;70055;39.436;-77.514;2023-07-20T01:15:14;21;20;
80692;PMS5003;70055;39.436;-77.514;2023-07-20T01:17:43;25;23;
80692;PMS5003;70055;39.436;-77.514;2023-07-20T01:20:12;25;24;
80692;PMS5003;70055;39.436;-77.514;2023-07-20T01:22:50;25;25;
80692;PMS5003;70055;39.436;-77.514;2023-07-20T01:25:45;20;19;
80692;PMS5003;70055;39.436;-77.514;2023-07-20T01:28:35;22;21;
80692;PMS5003;70055;39.436;-77.514;2023-07-20T01:31:18;25;24;
80692;PMS5003;70055;39.436;-77.514;2023-07-20T01:33:53;25;25;
80692;PMS5003;70055;39.436;-77.514;2023-07-20T01:36:23;20;19;
80692;PMS5003;70055;39.436;-77.514;2023-07-20T01:38:53;27;25;
80692;PMS5003;70055;39.436;-77.514;2023-07-20T01:41:23;25;24;
80692;PMS5003;70055;39.436;-77.514;2023-07-20T01:43:51;24;23;
80692;PMS5003;70055;39.436;-77.514;2023-07-20T01:46:19;20;19;
80692;PMS5003;70055;39.436;-77.514;2023-07-20T01:48:48;27;25;
80692;PMS5003;70055;39.436;-77.514;2023-07-20T01:51:15;27;25;
80692;PMS5003;70055;39.436;-77.514;2023-07-20T01:53:45;25;24;
80692;PMS5003;70055;39.436;-77.514;2023-07-20T01:56:13;24;24;
80692;PMS5003;70055;39.436;-77.514;2023-07-20T01:58:40;24;24;
80692;PMS5003;70055;39.436;-77.514;2023-07-20T02:01:08;23;23;
80692;PMS5003;70055;39.436;-77.514;2023-07-20T02:03:38;22;21;
80692;PMS5003;70055;39.436;-77.514;2023-07-20T02:06:06;18;17;
80692;PMS5003;70055;39.436;-77.514;2023-07-20T02:08:34;28;27;
80692;PMS5003;70055;39.436;-77.514;2023-07-20T02:11:03;26;23;
80692;PMS5003;70055;39.436;-77.514;2023-07-20T02:13:31;23;23;
80692;PMS5003;70055;39.436;-77.514;2023-07-20T02:15:59;22;22;
80692;PMS5003;70055;39.436;-77.514;2023-07-20T02:18:27;21;21;
80692;PMS5003;70055;39.436;-77.514;2023-07-20T02:20:55;22;21;
80692;PMS5003;70055;39.436;-77.514;2023-07-20T02:23:23;22;21;
80692;PMS5003;70055;39.436;-77.514;2023-07-20T02:25:51;20;20;
80692;PMS5003;70055;39.436;-77.514;2023-07-20T02:28:19;21;21;
80692;PMS5003;70055;39.436;-77.514;2023-07-20T02:30:47;20;20;
80692;PMS5003;70055;39.436;-77.514;2023-07-20T02:33:15;22;21;
80692;PMS5003;70055;39.436;-77.514;2023-07-20T02:35:44;24;24;
80692;PMS5003;70055;39.436;-77.514;2023-07-20T02:38:11;24;23;
80692;PMS5003;70055;39.436;-77.514;2023-07-20T02:40:40;28;27;
80692;PMS5003;70055;39.436;-77.514;2023-07-20T02:43:07;23;23;
80692;PMS5003;70055;39.436;-77.514;2023-07-20T02:45:40;21;21;
80692;PMS5003;70055;39.436;-77.514;2023-07-20T02:48:07;19;19;
80692;PMS5003;70055;39.436;-77.514;2023-07-20T02:50:35;23;22;
80692;PMS5003;70055;39.436;-77.514;2023-07-20T02:53:03;22;22;
80692;PMS5003;70055;39.436;-77.514;2023-07-20T02:55:31;27;25;
80692;PMS5003;70055;39.436;-77.514;2023-07-20T02:58:00;21;21;
80692;PMS5003;70055;39.436;-77.514;2023-07-20T03:00:28;24;24;
80692;PMS5003;70055;39.436;-77.514;2023-07-20T03:02:56;20;20;
80692;PMS5003;70055;39.436;-77.514;2023-07-20T03:05:23;25;25;
80692;PMS5003;70055;39.436;-77.514;2023-07-20T03:07:51;26;25;
80692;PMS5003;70055;39.436;-77.514;2023-07-20T03:10:20;25;23;
80692;PMS5003;70055;39.436;-77.514;2023-07-20T03:12:49;31;30;
80692;PMS5003;70055;39.436;-77.514;2023-07-20T03:15:17;27;27;
80692;PMS5003;70055;39.436;-77.514;2023-07-20T03:17:46;27;25;
80692;PMS5003;70055;39.436;-77.514;2023-07-20T03:20:13;26;25;
80692;PMS5003;70055;39.436;-77.514;2023-07-20T03:22:41;30;29;
80692;PMS5003;70055;39.436;-77.514;2023-07-20T03:25:10;26;26;
80692;PMS5003;70055;39.436;-77.514;2023-07-20T03:27:39;27;27;
80692;PMS5003;70055;39.436;-77.514;2023-07-20T03:30:07;26;26;
80692;PMS5003;70055;39.436;-77.514;2023-07-20T03:32:36;27;27;
80692;PMS5003;70055;39.436;-77.514;2023-07-20T03:35:04;28;28;
80692;PMS5003;70055;39.436;-77.514;2023-07-20T03:37:33;27;23;
80692;PMS5003;70055;39.436;-77.514;2023-07-20T03:40:02;22;22;
80692;PMS5003;70055;39.436;-77.514;2023-07-20T03:42:30;26;25;
80692;PMS5003;70055;39.436;-77.514;2023-07-20T03:44:59;26;25;
80692;PMS5003;70055;39.436;-77.514;2023-07-20T03:47:27;25;25;
80692;PMS5003;70055;39.436;-77.514;2023-07-20T03:49:55;25;24;
80692;PMS5003;70055;39.436;-77.514;2023-07-20T03:52:23;24;23;
80692;PMS5003;70055;39.436;-77.514;2023-07-20T03:54:52;26;25;
80692;PMS5003;70055;39.436;-77.514;2023-07-20T03:57:19;24;24;
80692;PMS5003;70055;39.436;-77.514;2023-07-20T03:59:47;25;25;
80692;PMS5003;70055;39.436;-77.514;2023-07-20T04:02:16;23;22;
80692;PMS5003;70055;39.436;-77.514;2023-07-20T04:04:44;23;23;
80692;PMS5003;70055;39.436;-77.514;2023-07-20T04:07:11;23;23;
80692;PMS5003;70055;39.436;-77.514;2023-07-20T04:09:39;27;26;
80692;PMS5003;70055;39.436;-77.514;2023-07-20T04:12:07;28;26;
80692;PMS5003;70055;39.436;-77.514;2023-07-20T04:14:36;26;25;
80692;PMS5003;70055;39.436;-77.514;2023-07-20T04:17:04;27;25;
80692;PMS5003;70055;39.436;-77.514;2023-07-20T04:19:32;24;24;
80692;PMS5003;70055;39.436;-77.514;2023-07-20T04:22:00;22;21;
80692;PMS5003;70055;39.436;-77.514;2023-07-20T04:24:28;24;22;
80692;PMS5003;70055;39.436;-77.514;2023-07-20T04:26:56;19;19;
80692;PMS5003;70055;39.436;-77.514;2023-07-20T04:29:25;26;24;
80692;PMS5003;70055;39.436;-77.514;2023-07-20T04:31:53;21;19;
80692;PMS5003;70055;39.436;-77.514;2023-07-20T04:34:21;20;20;
80692;PMS5003;70055;39.436;-77.514;2023-07-20T04:36:48;19;19;
80692;PMS5003;70055;39.436;-77.514;2023-07-20T04:39:17;26;24;
80692;PMS5003;70055;39.436;-77.514;2023-07-20T04:41:45;23;22;
80692;PMS5003;70055;39.436;-77.514;2023-07-20T04:44:13;24;23;
80692;PMS5003;70055;39.436;-77.514;2023-07-20T04:46:41;37;37;
80692;PMS5003;70055;39.436;-77.514;2023-07-20T04:49:09;35;34;
80692;PMS5003;70055;39.436;-77.514;2023-07-20T04:51:37;36;36;
80692;PMS5003;70055;39.436;-77.514;2023-07-20T04:54:05;26;24;
80692;PMS5003;70055;39.436;-77.514;2023-07-20T04:56:33;28;27;
80692;PMS5003;70055;39.436;-77.514;2023-07-20T04:59:01;32;30;
80692;PMS5003;70055;39.436;-77.514;2023-07-20T05:01:29;26;25;
80692;PMS5003;70055;39.436;-77.514;2023-07-20T05:03:57;28;25;
80692;PMS5003;70055;39.436;-77.514;2023-07-20T05:06:26;30;29;
80692;PMS5003;70055;39.436;-77.514;2023-07-20T05:08:53;30;29;
80692;PMS5003;70055;39.436;-77.514;2023-07-20T05:11:22;36;36;
80692;PMS5003;70055;39.436;-77.514;2023-07-20T05:13:50;34;33;
80692;PMS5003;70055;39.436;-77.514;2023-07-20T05:16:18;41;38;
80692;PMS5003;70055;39.436;-77.514;2023-07-20T05:18:46;36;34;
80692;PMS5003;70055;39.436;-77.514;2023-07-20T05:21:14;36;33;
80692;PMS5003;70055;39.436;-77.514;2023-07-20T05:23:43;30;29;
80692;PMS5003;70055;39.436;-77.514;2023-07-20T05:26:11;33;31;
80692;PMS5003;70055;39.436;-77.514;2023-07-20T05:28:39;32;32;
80692;PMS5003;70055;39.436;-77.514;2023-07-20T05:31:06;31;31;
80692;PMS5003;70055;39.436;-77.514;2023-07-20T05:33:34;32;32;
80692;PMS5003;70055;39.436;-77.514;2023-07-20T05:36:02;33;31;
80692;PMS5003;70055;39.436;-77.514;2023-07-20T05:38:30;32;30;
80692;PMS5003;70055;39.436;-77.514;2023-07-20T05:40:59;40;38;
80692;PMS5003;70055;39.436;-77.514;2023-07-20T05:43:27;34;33;
80692;PMS5003;70055;39.436;-77.514;2023-07-20T05:45:55;32;31;
80692;PMS5003;70055;39.436;-77.514;2023-07-20T05:48:24;27;26;
80692;PMS5003;70055;39.436;-77.514;2023-07-20T05:50:52;33;29;
80692;PMS5003;70055;39.436;-77.514;2023-07-20T05:53:20;34;32;
80692;PMS5003;70055;39.436;-77.514;2023-07-20T05:55:51;33;32;
80692;PMS5003;70055;39.436;-77.514;2023-07-20T05:58:19;34;33;
80692;PMS5003;70055;39.436;-77.514;2023-07-20T06:00:48;32;31;
80692;PMS5003;70055;39.436;-77.514;2023-07-20T06:03:16;31;31;
80692;PMS5003;70055;39.436;-77.514;2023-07-20T06:05:45;30;29;
80692;PMS5003;70055;39.436;-77.514;2023-07-20T06:08:14;34;34;
80692;PMS5003;70055;39.436;-77.514;2023-07-20T06:10:41;35;34;
80692;PMS5003;70055;39.436;-77.514;2023-07-20T06:13:09;38;33;
80692;PMS5003;70055;39.436;-77.514;2023-07-20T06:15:38;36;34;
80692;PMS5003;70055;39.436;-77.514;2023-07-20T06:18:06;37;36;
80692;PMS5003;70055;39.436;-77.514;2023-07-20T06:20:34;44;41;
80692;PMS5003;70055;39.436;-77.514;2023-07-20T06:23:03;43;40;
80692;PMS5003;70055;39.436;-77.514;2023-07-20T06:25:31;35;34;
80692;PMS5003;70055;39.436;-77.514;2023-07-20T06:27:59;36;35;
80692;PMS5003;70055;39.436;-77.514;2023-07-20T06:30:26;39;38;
80692;PMS5003;70055;39.436;-77.514;2023-07-20T06:32:54;41;38;
80692;PMS5003;70055;39.436;-77.514;2023-07-20T06:35:23;41;39;
80692;PMS5003;70055;39.436;-77.514;2023-07-20T06:37:51;35;33;
80692;PMS5003;70055;39.436;-77.514;2023-07-20T06:40:18;34;32;
80692;PMS5003;70055;39.436;-77.514;2023-07-20T06:42:47;36;35;
80692;PMS5003;70055;39.436;-77.514;2023-07-20T06:45:15;33;31;
80692;PMS5003;70055;39.436;-77.514;2023-07-20T06:47:42;32;31;
80692;PMS5003;70055;39.436;-77.514;2023-07-20T06:50:11;33;33;
80692;PMS5003;70055;39.436;-77.514;2023-07-20T06:52:39;35;34;
80692;PMS5003;70055;39.436;-77.514;2023-07-20T06:55:08;34;32;
80692;PMS5003;70055;39.436;-77.514;2023-07-20T06:57:36;30;28;
80692;PMS5003;70055;39.436;-77.514;2023-07-20T07:00:05;33;30;
80692;PMS5003;70055;39.436;-77.514;2023-07-20T07:02:34;31;31;
80692;PMS5003;70055;39.436;-77.514;2023-07-20T07:05:02;33;32;
80692;PMS5003;70055;39.436;-77.514;2023-07-20T07:07:30;39;38;
80692;PMS5003;70055;39.436;-77.514;2023-07-20T07:09:59;35;34;
80692;PMS5003;70055;39.436;-77.514;2023-07-20T07:12:28;34;33;
80692;PMS5003;70055;39.436;-77.514;2023-07-20T07:14:57;37;36;
80692;PMS5003;70055;39.436;-77.514;2023-07-20T07:17:25;36;35;
80692;PMS5003;70055;39.436;-77.514;2023-07-20T07:19:54;35;35;
80692;PMS5003;70055;39.436;-77.514;2023-07-20T07:22:23;33;31;
80692;PMS5003;70055;39.436;-77.514;2023-07-20T07:24:51;38;34;
80692;PMS5003;70055;39.436;-77.514;2023-07-20T07:27:18;32;31;
80692;PMS5003;70055;39.436;-77.514;2023-07-20T07:29:46;36;36;
80692;PMS5003;70055;39.436;-77.514;2023-07-20T07:32:15;31;31;
80692;PMS5003;70055;39.436;-77.514;2023-07-20T07:34:44;37;36;
80692;PMS5003;70055;39.436;-77.514;2023-07-20T07:37:12;29;29;
80692;PMS5003;70055;39.436;-77.514;2023-07-20T07:39:41;33;31;
80692;PMS5003;70055;39.436;-77.514;2023-07-20T07:42:09;33;33;
80692;PMS5003;70055;39.436;-77.514;2023-07-20T07:44:37;34;33;
80692;PMS5003;70055;39.436;-77.514;2023-07-20T07:47:05;32;31;
80692;PMS5003;70055;39.436;-77.514;2023-07-20T07:49:33;35;32;
80692;PMS5003;70055;39.436;-77.514;2023-07-20T07:52:01;30;29;
80692;PMS5003;70055;39.436;-77.514;2023-07-20T07:54:28;33;30;
80692;PMS5003;70055;39.436;-77.514;2023-07-20T07:56:57;35;34;
80692;PMS5003;70055;39.436;-77.514;2023-07-20T07:59:25;37;35;
80692;PMS5003;70055;39.436;-77.514;2023-07-20T08:01:53;33;32;
80692;PMS5003;70055;39.436;-77.514;2023-07-20T08:04:22;37;35;
80692;PMS5003;70055;39.436;-77.514;2023-07-20T08:06:50;34;33;
80692;PMS5003;70055;39.436;-77.514;2023-07-20T08:09:18;29;29;
80692;PMS5003;70055;39.436;-77.514;2023-07-20T08:11:46;27;27;
80692;PMS5003;70055;39.436;-77.514;2023-07-20T08:14:13;27;26;
80692;PMS5003;70055;39.436;-77.514;2023-07-20T08:16:41;30;29;
80692;PMS5003;70055;39.436;-77.514;2023-07-20T08:19:09;31;30;
80692;PMS5003;70055;39.436;-77.514;2023-07-20T08:21:37;28;27;
80692;PMS5003;70055;39.436;-77.514;2023-07-20T08:24:06;28;27;
80692;PMS5003;70055;39.436;-77.514;2023-07-20T08:26:33;31;29;
80692;PMS5003;70055;39.436;-77.514;2023-07-20T08:29:01;36;35;
80692;PMS5003;70055;39.436;-77.514;2023-07-20T08:31:29;37;37;
80692;PMS5003;70055;39.436;-77.514;2023-07-20T08:33:57;33;30;
80692;PMS5003;70055;39.436;-77.514;2023-07-20T08:36:25;31;30;
80692;PMS5003;70055;39.436;-77.514;2023-07-20T08:38:53;31;28;
80692;PMS5003;70055;39.436;-77.514;2023-07-20T08:41:21;34;32;
80692;PMS5003;70055;39.436;-77.514;2023-07-20T08:43:49;30;29;
80692;PMS5003;70055;39.436;-77.514;2023-07-20T08:46:21;27;26;
80692;PMS5003;70055;39.436;-77.514;2023-07-20T08:48:52;27;26;
80692;PMS5003;70055;39.436;-77.514;2023-07-20T08:51:21;33;32;
80692;PMS5003;70055;39.436;-77.514;2023-07-20T08:53:48;34;34;
80692;PMS5003;70055;39.436;-77.514;2023-07-20T08:56:19;33;32;
80692;PMS5003;70055;39.436;-77.514;2023-07-20T08:58:47;31;31;
80692;PMS5003;70055;39.436;-77.514;2023-07-20T09:01:16;30;30;
80692;PMS5003;70055;39.436;-77.514;2023-07-20T09:03:45;34;34;
80692;PMS5003;70055;39.436;-77.514;2023-07-20T09:06:14;34;32;
80692;PMS5003;70055;39.436;-77.514;2023-07-20T09:08:42;36;35;
80692;PMS5003;70055;39.436;-77.514;2023-07-20T09:11:11;37;36;
80692;PMS5003;70055;39.436;-77.514;2023-07-20T09:13:39;42;40;
80692;PMS5003;70055;39.436;-77.514;2023-07-20T09:16:07;42;41;
80692;PMS5003;70055;39.436;-77.514;2023-07-20T09:18:35;44;44;
80692;PMS5003;70055;39.436;-77.514;2023-07-20T09:21:04;37;36;
80692;PMS5003;70055;39.436;-77.514;2023-07-20T09:23:33;44;42;
80692;PMS5003;70055;39.436;-77.514;2023-07-20T09:26:08;43;43;
80692;PMS5003;70055;39.436;-77.514;2023-07-20T09:28:41;39;36;
80692;PMS5003;70055;39.436;-77.514;2023-07-20T09:31:15;42;40;
80692;PMS5003;70055;39.436;-77.514;2023-07-20T09:33:43;36;34;
80692;PMS5003;70055;39.436;-77.514;2023-07-20T09:36:11;40;40;
80692;PMS5003;70055;39.436;-77.514;2023-07-20T09:38:41;43;41;
80692;PMS5003;70055;39.436;-77.514;2023-07-20T09:41:13;41;40;
80692;PMS5003;70055;39.436;-77.514;2023-07-20T09:43:42;40;39;
80692;PMS5003;70055;39.436;-77.514;2023-07-20T09:46:10;38;38;
80692;PMS5003;70055;39.436;-77.514;2023-07-20T09:48:38;41;39;
80692;PMS5003;70055;39.436;-77.514;2023-07-20T09:51:06;38;36;
80692;PMS5003;70055;39.436;-77.514;2023-07-20T09:53:35;41;39;
80692;PMS5003;70055;39.436;-77.514;2023-07-20T09:56:04;41;39;
80692;PMS5003;70055;39.436;-77.514;2023-07-20T09:58:33;43;40;
80692;PMS5003;70055;39.436;-77.514;2023-07-20T10:01:01;42;41;
80692;PMS5003;70055;39.436;-77.514;2023-07-20T10:03:34;46;44;
80692;PMS5003;70055;39.436;-77.514;2023-07-20T10:06:06;47;45;
80692;PMS5003;70055;39.436;-77.514;2023-07-20T10:08:38;39;38;
80692;PMS5003;70055;39.436;-77.514;2023-07-20T10:11:08;40;39;
80692;PMS5003;70055;39.436;-77.514;2023-07-20T10:13:37;42;38;
80692;PMS5003;70055;39.436;-77.514;2023-07-20T10:16:09;50;48;
80692;PMS5003;70055;39.436;-77.514;2023-07-20T10:18:41;34;34;
80692;PMS5003;70055;39.436;-77.514;2023-07-20T10:21:14;40;38;
80692;PMS5003;70055;39.436;-77.514;2023-07-20T10:23:46;43;40;
80692;PMS5003;70055;39.436;-77.514;2023-07-20T10:26:14;37;36;
80692;PMS5003;70055;39.436;-77.514;2023-07-20T10:28:42;42;39;
80692;PMS5003;70055;39.436;-77.514;2023-07-20T10:31:12;44;43;
80692;PMS5003;70055;39.436;-77.514;2023-07-20T10:33:42;44;44;
80692;PMS5003;70055;39.436;-77.514;2023-07-20T10:36:11;42;41;
80692;PMS5003;70055;39.436;-77.514;2023-07-20T10:38:39;45;41;
80692;PMS5003;70055;39.436;-77.514;2023-07-20T10:41:21;39;38;
80692;PMS5003;70055;39.436;-77.514;2023-07-20T10:43:57;37;37;
80692;PMS5003;70055;39.436;-77.514;2023-07-20T10:46:36;47;46;
80692;PMS5003;70055;39.436;-77.514;2023-07-20T10:49:10;46;44;
80692;PMS5003;70055;39.436;-77.514;2023-07-20T10:51:39;44;43;
80692;PMS5003;70055;39.436;-77.514;2023-07-20T10:54:11;38;38;
80692;PMS5003;70055;39.436;-77.514;2023-07-20T10:57:28;41;41;
80692;PMS5003;70055;39.436;-77.514;2023-07-20T11:00:11;51;48;
80692;PMS5003;70055;39.436;-77.514;2023-07-20T11:02:42;49;48;
80692;PMS5003;70055;39.436;-77.514;2023-07-20T11:05:45;39;38;
80692;PMS5003;70055;39.436;-77.514;2023-07-20T11:08:14;42;41;
80692;PMS5003;70055;39.436;-77.514;2023-07-20T11:11:22;46;42;
80692;PMS5003;70055;39.436;-77.514;2023-07-20T11:13:57;37;37;
80692;PMS5003;70055;39.436;-77.514;2023-07-20T11:16:34;41;41;
80692;PMS5003;70055;39.436;-77.514;2023-07-20T11:19:04;39;39;
80692;PMS5003;70055;39.436;-77.514;2023-07-20T11:21:36;41;41;
80692;PMS5003;70055;39.436;-77.514;2023-07-20T11:24:08;45;44;
80692;PMS5003;70055;39.436;-77.514;2023-07-20T11:26:44;46;45;
80692;PMS5003;70055;39.436;-77.514;2023-07-20T11:29:13;45;42;
80692;PMS5003;70055;39.436;-77.514;2023-07-20T11:31:43;44;42;
80692;PMS5003;70055;39.436;-77.514;2023-07-20T11:34:16;42;40;
80692;PMS5003;70055;39.436;-77.514;2023-07-20T11:36:46;46;41;
80692;PMS5003;70055;39.436;-77.514;2023-07-20T11:39:16;48;45;
80692;PMS5003;70055;39.436;-77.514;2023-07-20T11:41:47;41;39;
80692;PMS5003;70055;39.436;-77.514;2023-07-20T11:44:15;45;44;
80692;PMS5003;70055;39.436;-77.514;2023-07-20T11:46:44;35;35;
80692;PMS5003;70055;39.436;-77.514;2023-07-20T11:49:13;41;41;
80692;PMS5003;70055;39.436;-77.514;2023-07-20T11:51:42;41;40;
80692;PMS5003;70055;39.436;-77.514;2023-07-20T11:54:11;44;43;
80692;PMS5003;70055;39.436;-77.514;2023-07-20T11:56:41;38;36;
80692;PMS5003;70055;39.436;-77.514;2023-07-20T11:59:09;36;34;
80692;PMS5003;70055;39.436;-77.514;2023-07-20T12:01:39;37;36;
80692;PMS5003;70055;39.436;-77.514;2023-07-20T12:04:08;41;40;
80692;PMS5003;70055;39.436;-77.514;2023-07-20T12:06:36;42;39;
80692;PMS5003;70055;39.436;-77.514;2023-07-20T12:09:04;39;37;
80692;PMS5003;70055;39.436;-77.514;2023-07-20T12:11:33;39;37;
80692;PMS5003;70055;39.436;-77.514;2023-07-20T12:14:02;40;37;
80692;PMS5003;70055;39.436;-77.514;2023-07-20T12:16:31;41;39;
80692;PMS5003;70055;39.436;-77.514;2023-07-20T12:19:00;39;38;
80692;PMS5003;70055;39.436;-77.514;2023-07-20T12:21:30;41;39;
80692;PMS5003;70055;39.436;-77.514;2023-07-20T12:24:00;39;37;
80692;PMS5003;70055;39.436;-77.514;2023-07-20T12:26:29;35;34;
80692;PMS5003;70055;39.436;-77.514;2023-07-20T12:28:58;45;43;
80692;PMS5003;70055;39.436;-77.514;2023-07-20T12:31:27;37;35;
80692;PMS5003;70055;39.436;-77.514;2023-07-20T12:33:57;35;34;
80692;PMS5003;70055;39.436;-77.514;2023-07-20T12:36:26;35;33;
80692;PMS5003;70055;39.436;-77.514;2023-07-20T12:38:56;37;37;
80692;PMS5003;70055;39.436;-77.514;2023-07-20T12:41:23;42;38;
80692;PMS5003;70055;39.436;-77.514;2023-07-20T12:43:52;40;38;
80692;PMS5003;70055;39.436;-77.514;2023-07-20T12:46:19;35;34;
80692;PMS5003;70055;39.436;-77.514;2023-07-20T12:48:47;36;34;
80692;PMS5003;70055;39.436;-77.514;2023-07-20T12:51:16;37;35;
80692;PMS5003;70055;39.436;-77.514;2023-07-20T12:53:45;35;34;
80692;PMS5003;70055;39.436;-77.514;2023-07-20T12:56:13;37;36;
80692;PMS5003;70055;39.436;-77.514;2023-07-20T12:58:42;38;36;
80692;PMS5003;70055;39.436;-77.514;2023-07-20T13:01:10;35;33;
80692;PMS5003;70055;39.436;-77.514;2023-07-20T13:03:39;34;33;
80692;PMS5003;70055;39.436;-77.514;2023-07-20T13:06:07;35;33;
80692;PMS5003;70055;39.436;-77.514;2023-07-20T13:08:35;38;37;
80692;PMS5003;70055;39.436;-77.514;2023-07-20T13:11:04;36;34;
80692;PMS5003;70055;39.436;-77.514;2023-07-20T13:13:32;28;28;
80692;PMS5003;70055;39.436;-77.514;2023-07-20T13:16:01;32;32;
80692;PMS5003;70055;39.436;-77.514;2023-07-20T13:18:30;35;34;
80692;PMS5003;70055;39.436;-77.514;2023-07-20T13:20:58;37;36;
80692;PMS5003;70055;39.436;-77.514;2023-07-20T13:23:27;37;34;
80692;PMS5003;70055;39.436;-77.514;2023-07-20T13:25:54;30;29;
80692;PMS5003;70055;39.436;-77.514;2023-07-20T13:28:23;38;38;
80692;PMS5003;70055;39.436;-77.514;2023-07-20T13:30:51;33;32;
80692;PMS5003;70055;39.436;-77.514;2023-07-20T13:33:19;39;38;
80692;PMS5003;70055;39.436;-77.514;2023-07-20T13:35:47;39;38;
80692;PMS5003;70055;39.436;-77.514;2023-07-20T13:38:16;35;35;
80692;PMS5003;70055;39.436;-77.514;2023-07-20T13:40:45;36;35;
80692;PMS5003;70055;39.436;-77.514;2023-07-20T13:43:12;31;30;
80692;PMS5003;70055;39.436;-77.514;2023-07-20T13:45:40;34;32;
80692;PMS5003;70055;39.436;-77.514;2023-07-20T13:48:09;32;30;
80692;PMS5003;70055;39.436;-77.514;2023-07-20T13:50:37;32;32;
80692;PMS5003;70055;39.436;-77.514;2023-07-20T13:53:06;33;33;
80692;PMS5003;70055;39.436;-77.514;2023-07-20T13:55:35;34;34;
80692;PMS5003;70055;39.436;-77.514;2023-07-20T13:58:04;39;37;
80692;PMS5003;70055;39.436;-77.514;2023-07-20T14:00:34;30;30;
80692;PMS5003;70055;39.436;-77.514;2023-07-20T14:03:01;35;34;
80692;PMS5003;70055;39.436;-77.514;2023-07-20T14:05:29;33;31;
80692;PMS5003;70055;39.436;-77.514;2023-07-20T14:07:57;33;32;
80692;PMS5003;70055;39.436;-77.514;2023-07-20T14:10:24;33;32;
80692;PMS5003;70055;39.436;-77.514;2023-07-20T14:12:53;32;31;
80692;PMS5003;70055;39.436;-77.514;2023-07-20T14:15:22;33;32;
80692;PMS5003;70055;39.436;-77.514;2023-07-20T14:17:49;33;32;
80692;PMS5003;70055;39.436;-77.514;2023-07-20T14:20:18;28;26;
80692;PMS5003;70055;39.436;-77.514;2023-07-20T14:22:48;35;34;
80692;PMS5003;70055;39.436;-77.514;2023-07-20T14:25:16;25;25;
80692;PMS5003;70055;39.436;-77.514;2023-07-20T14:27:44;30;30;
80692;PMS5003;70055;39.436;-77.514;2023-07-20T14:30:12;34;33;
80692;PMS5003;70055;39.436;-77.514;2023-07-20T14:32:41;35;33;
80692;PMS5003;70055;39.436;-77.514;2023-07-20T14:35:10;34;32;
80692;PMS5003;70055;39.436;-77.514;2023-07-20T14:37:38;29;28;
80692;PMS5003;70055;39.436;-77.514;2023-07-20T14:40:06;31;29;
80692;PMS5003;70055;39.436;-77.514;2023-07-20T14:42:35;31;30;
80692;PMS5003;70055;39.436;-77.514;2023-07-20T14:45:04;34;33;
80692;PMS5003;70055;39.436;-77.514;2023-07-20T14:47:32;30;30;
80692;PMS5003;70055;39.436;-77.514;2023-07-20T14:50:00;35;34;
80692;PMS5003;70055;39.436;-77.514;2023-07-20T14:52:28;34;33;
80692;PMS5003;70055;39.436;-77.514;2023-07-20T14:54:57;30;30;
80692;PMS5003;70055;39.436;-77.514;2023-07-20T14:57:25;33;33;
80692;PMS5003;70055;39.436;-77.514;2023-07-20T14:59:53;34;32;
80692;PMS5003;70055;39.436;-77.514;2023-07-20T15:02:22;34;34;
80692;PMS5003;70055;39.436;-77.514;2023-07-20T15:04:50;29;28;
80692;PMS5003;70055;39.436;-77.514;2023-07-20T15:07:20;30;29;
80692;PMS5003;70055;39.436;-77.514;2023-07-20T15:09:49;30;28;
80692;PMS5003;70055;39.436;-77.514;2023-07-20T15:12:16;29;29;
80692;PMS5003;70055;39.436;-77.514;2023-07-20T15:14:45;28;27;
80692;PMS5003;70055;39.436;-77.514;2023-07-20T15:17:31;30;29;
80692;PMS5003;70055;39.436;-77.514;2023-07-20T15:20:00;30;30;
80692;PMS5003;70055;39.436;-77.514;2023-07-20T15:22:30;28;27;
80692;PMS5003;70055;39.436;-77.514;2023-07-20T15:24:59;28;27;
80692;PMS5003;70055;39.436;-77.514;2023-07-20T15:27:27;29;29;
80692;PMS5003;70055;39.436;-77.514;2023-07-20T15:29:56;28;28;
80692;PMS5003;70055;39.436;-77.514;2023-07-20T15:32:25;28;26;
80692;PMS5003;70055;39.436;-77.514;2023-07-20T15:34:53;27;26;
80692;PMS5003;70055;39.436;-77.514;2023-07-20T15:37:21;27;26;
80692;PMS5003;70055;39.436;-77.514;2023-07-20T15:39:50;29;29;
80692;PMS5003;70055;39.436;-77.514;2023-07-20T15:42:19;30;29;
80692;PMS5003;70055;39.436;-77.514;2023-07-20T15:44:48;26;25;
80692;PMS5003;70055;39.436;-77.514;2023-07-20T15:47:16;31;29;
80692;PMS5003;70055;39.436;-77.514;2023-07-20T15:49:44;29;29;
80692;PMS5003;70055;39.436;-77.514;2023-07-20T15:52:12;31;30;
80692;PMS5003;70055;39.436;-77.514;2023-07-20T15:54:41;28;27;
80692;PMS5003;70055;39.436;-77.514;2023-07-20T15:57:09;27;26;
80692;PMS5003;70055;39.436;-77.514;2023-07-20T15:59:37;26;26;